createdAt,value
2022-09-15T00:01:05.412Z,-20479.28
2022-09-15T00:03:33.009Z,-20478.66
2022-09-15T00:06:00.586Z,-20479.13
2022-09-15T00:08:29.503Z,-20479.56
2022-09-15T00:11:03.152Z,-20482.31
2022-09-15T00:13:30.733Z,-20482.78
2022-09-15T00:15:58.573Z,-20483.38
2022-09-15T00:18:26.419Z,-20480.78
2022-09-15T00:20:54.053Z,-20476.53
2022-09-15T00:23:21.570Z,-20477.16
2022-09-15T00:25:52.589Z,-20479.72
2022-09-15T00:28:22.171Z,-20479.88
2022-09-15T00:30:52.275Z,-20484.28
2022-09-15T00:33:21.837Z,-20484.00
2022-09-15T00:35:51.477Z,-20485.06
2022-09-15T00:38:20.024Z,-20485.19
2022-09-15T00:40:50.944Z,-20485.81
2022-09-15T00:43:23.711Z,-20485.19
2022-09-15T00:45:52.908Z,-20483.53
2022-09-15T00:48:23.179Z,-20487.03
2022-09-15T00:50:56.133Z,-20488.09
2022-09-15T00:53:25.511Z,-20487.94
2022-09-15T00:55:55.366Z,-20486.25
2022-09-15T00:58:26.742Z,-20485.97
2022-09-15T01:00:57.551Z,-20485.34
2022-09-15T01:03:27.031Z,-20486.56
2022-09-15T01:05:57.637Z,-20485.50
2022-09-15T01:08:29.504Z,-20485.34
2022-09-15T01:10:58.900Z,-20485.50
2022-09-15T01:13:27.218Z,-20485.50
2022-09-15T01:16:07.654Z,-20485.66
2022-09-15T01:18:42.709Z,-20485.19
2022-09-15T01:21:19.620Z,-20487.19
2022-09-15T01:24:16.918Z,-20485.19
2022-09-15T01:27:24.450Z,-20487.78
2022-09-15T01:30:09.979Z,-20488.53
2022-09-15T01:33:05.698Z,-20487.78
2022-09-15T01:35:41.440Z,-20489.00
2022-09-15T01:38:15.110Z,-20488.41
2022-09-15T01:40:47.957Z,-20488.53
2022-09-15T01:43:17.842Z,-20489.47
2022-09-15T01:45:49.214Z,-20489.91
2022-09-15T01:48:19.946Z,-20489.47
2022-09-15T01:50:51.727Z,-20490.22
2022-09-15T01:53:23.222Z,-20489.78
2022-09-15T01:55:57.441Z,-20489.00
2022-09-15T01:58:25.313Z,-20490.38
2022-09-15T02:00:59.839Z,-20491.13
2022-09-15T02:03:34.980Z,-20487.47
2022-09-15T02:06:11.075Z,-20489.00
2022-09-15T02:08:45.131Z,-20488.09
2022-09-15T02:11:17.067Z,-20485.97
2022-09-15T02:13:54.086Z,-20487.34
2022-09-15T02:16:25.798Z,-20487.78
2022-09-15T02:19:03.841Z,-20487.19
2022-09-15T02:21:39.445Z,-20487.03
2022-09-15T02:24:12.800Z,-20488.25
2022-09-15T02:26:43.059Z,-20488.69
2022-09-15T02:29:16.255Z,-20489.00
2022-09-15T02:31:47.002Z,-20487.94
2022-09-15T02:34:18.942Z,-20487.94
2022-09-15T02:36:47.614Z,-20488.69
2022-09-15T02:39:20.374Z,-20488.41
2022-09-15T02:41:48.986Z,-20487.78
2022-09-15T02:44:16.583Z,-20486.88
2022-09-15T02:46:45.480Z,-20487.47
2022-09-15T02:49:14.250Z,-20486.72
2022-09-15T02:51:41.870Z,-20487.19
2022-09-15T02:54:09.582Z,-20487.63
2022-09-15T02:56:37.151Z,-20486.25
2022-09-15T02:59:04.775Z,-20487.47
2022-09-15T03:01:34.404Z,-20487.47
2022-09-15T03:04:04.994Z,-20488.69
2022-09-15T03:06:36.030Z,-20488.69
2022-09-15T03:09:05.818Z,-20488.41
2022-09-15T03:11:34.454Z,-20488.09
2022-09-15T03:14:04.114Z,-20487.63
2022-09-15T03:16:34.292Z,-20487.47
2022-09-15T03:19:04.022Z,-20487.63
2022-09-15T03:21:31.730Z,-20488.41
2022-09-15T03:23:59.462Z,-20487.94
2022-09-15T03:26:27.171Z,-20485.50
2022-09-15T03:28:54.726Z,-20484.44
2022-09-15T03:31:22.376Z,-20486.25
2022-09-15T03:33:50.468Z,-20487.19
2022-09-15T03:36:19.358Z,-20485.81
2022-09-15T03:38:46.925Z,-20486.25
2022-09-15T03:41:14.631Z,-20484.91
2022-09-15T03:43:42.361Z,-20485.19
2022-09-15T03:46:12.455Z,-20485.34
2022-09-15T03:48:40.863Z,-20485.66
2022-09-15T03:51:10.415Z,-20485.06
2022-09-15T03:53:41.085Z,-20484.91
2022-09-15T03:56:11.066Z,-20485.97
2022-09-15T03:58:39.084Z,-20486.88
2022-09-15T04:01:06.724Z,-20484.91
2022-09-15T04:03:37.477Z,-20486.25
2022-09-15T04:06:08.370Z,-20485.34
2022-09-15T04:08:35.912Z,-20486.25
2022-09-15T04:11:07.504Z,-20486.56
2022-09-15T04:13:35.214Z,-20487.19
2022-09-15T04:16:04.485Z,-20487.47
2022-09-15T04:18:33.072Z,-20485.34
2022-09-15T04:21:01.585Z,-20488.25
2022-09-15T04:23:29.392Z,-20487.47
2022-09-15T04:25:57.778Z,-20490.97
2022-09-15T04:28:27.558Z,-20488.84
2022-09-15T04:31:03.645Z,-20489.47
2022-09-15T04:33:31.282Z,-20487.19
2022-09-15T04:35:59.763Z,-20488.09
2022-09-15T04:38:27.354Z,-20481.41
2022-09-15T04:40:55.403Z,-20475.78
2022-09-15T04:43:23.181Z,-20469.53
2022-09-15T04:45:52.731Z,-20469.69
2022-09-15T04:48:20.322Z,-20466.19
2022-09-15T04:50:47.938Z,-20457.38
2022-09-15T04:53:16.458Z,-20456.47
2022-09-15T04:55:44.626Z,-20453.72
2022-09-15T04:58:12.298Z,-20453.28
2022-09-15T05:00:42.894Z,-20450.06
2022-09-15T05:03:12.820Z,-20455.69
2022-09-15T05:05:41.055Z,-20450.69
2022-09-15T05:08:08.892Z,-20446.72
2022-09-15T05:10:38.095Z,-20445.34
2022-09-15T05:13:05.662Z,-20444.91
2022-09-15T05:15:33.735Z,-20444.44
2022-09-15T05:18:01.528Z,-20443.38
2022-09-15T05:20:30.423Z,-20435.91
2022-09-15T05:22:58.006Z,-20433.94
2022-09-15T05:25:25.801Z,-20438.81
2022-09-15T05:27:53.751Z,-20435.16
2022-09-15T05:30:37.583Z,-20438.66
2022-09-15T05:33:06.613Z,-20432.44
2022-09-15T05:35:35.549Z,-20438.06
2022-09-15T05:38:03.477Z,-20437.91
2022-09-15T05:40:31.048Z,-20433.50
2022-09-15T05:42:58.679Z,-20436.22
2022-09-15T05:45:26.221Z,-20441.09
2022-09-15T05:47:53.768Z,-20442.16
2022-09-15T05:50:21.332Z,-20444.16
2022-09-15T05:52:53.195Z,-20437.59
2022-09-15T05:55:20.730Z,-20432.72
2022-09-15T05:57:48.362Z,-20427.53
2022-09-15T06:00:16.576Z,-20430.75
2022-09-15T06:02:44.163Z,-20415.06
2022-09-15T06:05:11.879Z,-20418.25
2022-09-15T06:07:39.503Z,-20412.63
2022-09-15T06:10:10.213Z,-20414.75
2022-09-15T06:12:37.745Z,-20406.53
2022-09-15T06:15:05.954Z,-20406.69
2022-09-15T06:17:34.008Z,-20408.22
2022-09-15T06:20:01.546Z,-20400.13
2022-09-15T06:22:29.118Z,-20400.28
2022-09-15T06:24:56.659Z,-20400.44
2022-09-15T06:27:25.666Z,-20399.06
2022-09-15T06:29:53.337Z,-20399.69
2022-09-15T06:32:20.928Z,-20395.56
2022-09-15T06:34:48.595Z,-20399.38
2022-09-15T06:37:16.467Z,-20394.34
2022-09-15T06:39:44.540Z,-20396.47
2022-09-15T06:42:14.028Z,-20392.38
2022-09-15T06:44:43.047Z,-20398.00
2022-09-15T06:47:10.642Z,-20396.16
2022-09-15T06:49:38.177Z,-20392.81
2022-09-15T06:52:05.737Z,-20390.69
2022-09-15T06:54:33.342Z,-20391.91
2022-09-15T06:57:00.872Z,-20392.53
2022-09-15T06:59:28.429Z,-20395.88
2022-09-15T07:02:02.649Z,-20395.41
2022-09-15T07:04:32.402Z,-20394.50
2022-09-15T07:06:59.973Z,-20392.81
2022-09-15T07:09:27.489Z,-20393.72
2022-09-15T07:11:55.034Z,-20396.78
2022-09-15T07:14:22.909Z,-20394.94
2022-09-15T07:16:50.454Z,-20392.66
2022-09-15T07:19:19.369Z,-20395.25
2022-09-15T07:21:46.895Z,-20397.38
2022-09-15T07:24:14.508Z,-20395.56
2022-09-15T07:26:42.071Z,-20399.53
2022-09-15T07:29:10.611Z,-20400.13
2022-09-15T07:31:39.754Z,-20401.66
2022-09-15T07:34:08.010Z,-20401.81
2022-09-15T07:36:36.953Z,-20406.69
2022-09-15T07:39:05.764Z,-20404.25
2022-09-15T07:41:34.093Z,-20405.31
2022-09-15T07:44:02.513Z,-20408.50
2022-09-15T07:46:32.283Z,-20415.06
2022-09-15T07:49:00.592Z,-20417.50
2022-09-15T07:51:28.143Z,-20419.03
2022-09-15T07:53:57.075Z,-20425.13
2022-09-15T07:56:24.826Z,-20425.72
2022-09-15T07:58:52.914Z,-20428.31
2022-09-15T08:01:22.404Z,-20431.81
2022-09-15T08:03:52.641Z,-20429.69
2022-09-15T08:06:22.770Z,-20433.63
2022-09-15T08:08:52.274Z,-20434.25
2022-09-15T08:11:23.367Z,-20434.09
2022-09-15T08:13:52.300Z,-20436.84
2022-09-15T08:16:22.748Z,-20436.38
2022-09-15T08:18:52.473Z,-20439.88
2022-09-15T08:21:21.887Z,-20443.22
2022-09-15T08:23:52.364Z,-20447.03
2022-09-15T08:26:20.200Z,-20442.78
2022-09-15T08:28:49.852Z,-20440.63
2022-09-15T08:31:18.030Z,-20444.59
2022-09-15T08:33:48.842Z,-20446.72
2022-09-15T08:36:16.613Z,-20441.88
2022-09-15T08:38:45.846Z,-20444.59
2022-09-15T08:41:19.242Z,-20447.66
2022-09-15T08:43:51.995Z,-20447.50
2022-09-15T08:46:25.462Z,-20449.63
2022-09-15T08:49:02.884Z,-20455.84
2022-09-15T08:51:34.879Z,-20456.31
2022-09-15T08:54:08.613Z,-20461.94
2022-09-15T08:56:37.138Z,-20462.84
2022-09-15T08:59:06.228Z,-20465.75
2022-09-15T09:01:54.201Z,-20463.31
2022-09-15T09:04:42.360Z,-20468.63
2022-09-15T09:07:22.636Z,-20465.13
2022-09-15T09:09:57.762Z,-20463.75
2022-09-15T09:12:42.508Z,-20470.16
2022-09-15T09:15:27.726Z,-20469.84
2022-09-15T09:18:18.787Z,-20471.97
2022-09-15T09:20:56.413Z,-20474.72
2022-09-15T09:23:29.549Z,-20475.63
2022-09-15T09:25:58.637Z,-20469.25
2022-09-15T09:28:31.537Z,-20469.84
2022-09-15T09:31:08.203Z,-20467.72
2022-09-15T09:33:47.490Z,-20475.19
2022-09-15T09:36:16.295Z,-20477.75
2022-09-15T09:38:46.856Z,-20472.88
2022-09-15T09:41:17.459Z,-20479.28
2022-09-15T09:43:48.333Z,-20488.41
2022-09-15T09:46:20.154Z,-20480.19
2022-09-15T09:48:53.554Z,-20484.00
2022-09-15T09:51:32.824Z,-20495.38
2022-09-15T09:54:15.296Z,-20491.13
2022-09-15T09:56:43.278Z,-20497.97
2022-09-15T09:59:34.800Z,-20503.59
2022-09-15T10:02:15.622Z,-20501.63
2022-09-15T10:04:44.502Z,-20504.50
2022-09-15T10:07:13.196Z,-20507.09
2022-09-15T10:09:41.110Z,-20497.50
2022-09-15T10:12:20.441Z,-20504.19
2022-09-15T10:14:54.010Z,-20499.94
2022-09-15T10:17:26.414Z,-20502.53
2022-09-15T10:19:55.855Z,-20512.09
2022-09-15T10:22:27.682Z,-20521.22
2022-09-15T10:24:55.489Z,-20528.34
2022-09-15T10:27:29.904Z,-20520.47
2022-09-15T10:30:01.664Z,-20522.28
2022-09-15T10:32:31.986Z,-20524.69
2022-09-15T10:35:05.963Z,-20524.56
2022-09-15T10:37:38.703Z,-20521.06
2022-09-15T10:40:23.201Z,-20517.56
2022-09-15T10:42:52.851Z,-20517.56
2022-09-15T10:45:27.551Z,-20516.03
2022-09-15T10:48:14.520Z,-20526.06
2022-09-15T10:50:52.386Z,-20555.50
2022-09-15T10:53:36.489Z,-20564.91
2022-09-15T10:56:16.516Z,-20586.13
2022-09-15T10:58:56.641Z,-20605.22
2022-09-15T11:01:40.192Z,-20624.63
2022-09-15T11:04:29.389Z,-20624.63
2022-09-15T11:07:04.362Z,-20622.50
2022-09-15T11:09:35.332Z,-20607.34
2022-09-15T11:12:17.935Z,-20606.59
2022-09-15T11:14:56.957Z,-20638.84
2022-09-15T11:17:43.903Z,-20652.16
2022-09-15T11:20:41.272Z,-20671.50
2022-09-15T11:23:19.692Z,-20660.63
2022-09-15T11:25:54.044Z,-20671.66
2022-09-15T11:28:27.819Z,-20668.47
2022-09-15T11:31:01.639Z,-20655.78
2022-09-15T11:33:33.793Z,-20638.84
2022-09-15T11:36:06.482Z,-20620.38
2022-09-15T11:38:47.759Z,-20602.19
2022-09-15T11:41:21.706Z,-20568.88
2022-09-15T11:44:04.106Z,-20568.56
2022-09-15T11:46:43.796Z,-20565.97
2022-09-15T11:49:18.158Z,-20605.22
2022-09-15T11:51:53.506Z,-20642.16
2022-09-15T11:54:31.608Z,-20656.09
2022-09-15T11:57:00.605Z,-20653.97
2022-09-15T11:59:33.426Z,-20663.03
2022-09-15T12:02:12.581Z,-20635.19
2022-09-15T12:04:57.922Z,-20633.84
2022-09-15T12:07:31.592Z,-20637.63
2022-09-15T12:10:07.905Z,-20670.16
2022-09-15T12:12:37.023Z,-20659.72
2022-09-15T12:15:05.330Z,-20649.56
2022-09-15T12:17:41.308Z,-20661.53
2022-09-15T12:20:18.413Z,-20662.13
2022-09-15T12:22:52.974Z,-20658.50
2022-09-15T12:25:27.709Z,-20647.31
2022-09-15T12:28:42.938Z,-20629.16
2022-09-15T12:31:35.770Z,-20632.63
2022-09-15T12:34:05.829Z,-20615.38
2022-09-15T12:36:42.449Z,-20604.00
2022-09-15T12:39:26.651Z,-20600.69
2022-09-15T12:41:58.324Z,-20587.19
2022-09-15T12:44:33.174Z,-20601.91
2022-09-15T12:47:02.828Z,-20606.75
2022-09-15T12:49:34.094Z,-20606.91
2022-09-15T12:52:06.289Z,-20621.28
2022-09-15T12:54:36.795Z,-20603.88
2022-09-15T12:57:07.963Z,-20608.88
2022-09-15T12:59:35.695Z,-20609.16
2022-09-15T13:02:03.278Z,-20623.09
2022-09-15T13:04:55.094Z,-20634.28
2022-09-15T13:07:33.664Z,-20630.06
2022-09-15T13:10:18.704Z,-20622.78
2022-09-15T13:12:58.743Z,-20605.84
2022-09-15T13:15:27.828Z,-20604.31
2022-09-15T13:17:56.707Z,-20613.41
2022-09-15T13:20:32.783Z,-20611.28
2022-09-15T13:23:01.035Z,-20614.78
2022-09-15T13:25:31.194Z,-20621.28
2022-09-15T13:28:02.267Z,-20610.97
2022-09-15T13:30:43.501Z,-20628.84
2022-09-15T13:35:02.268Z,-20651.84
2022-09-15T13:38:04.314Z,-20642.31
2022-09-15T13:39:45.637Z,-20615.22
2022-09-15T13:42:40.815Z,-20612.19
2022-09-15T13:45:38.547Z,-20613.41
2022-09-15T13:48:28.321Z,-20612.34
2022-09-15T13:51:00.753Z,-20612.78
2022-09-15T13:53:49.212Z,-20613.25
2022-09-15T13:56:21.348Z,-20609.63
2022-09-15T13:59:01.347Z,-20613.41
2022-09-15T14:01:36.017Z,-20621.28
2022-09-15T14:04:08.462Z,-20607.50
2022-09-15T14:06:39.352Z,-20604.47
2022-09-15T14:09:13.597Z,-20623.56
2022-09-15T14:11:43.958Z,-20617.34
2022-09-15T14:14:31.102Z,-20618.25
2022-09-15T14:17:00.265Z,-20628.09
2022-09-15T14:19:33.423Z,-20643.06
2022-09-15T14:22:02.020Z,-20642.94
2022-09-15T14:24:31.401Z,-20661.53
2022-09-15T14:27:03.282Z,-20651.09
2022-09-15T14:29:30.919Z,-20630.06
2022-09-15T14:32:03.814Z,-20631.72
2022-09-15T14:34:36.133Z,-20631.13
2022-09-15T14:37:07.798Z,-20617.81
2022-09-15T14:39:37.588Z,-20612.78
2022-09-15T14:42:20.321Z,-20626.28
2022-09-15T14:47:41.689Z,-20608.25
2022-09-15T14:50:13.454Z,-20606.44
2022-09-15T14:52:43.685Z,-20610.38
2022-09-15T14:55:16.842Z,-20616.28
2022-09-15T14:57:52.440Z,-20611.44
2022-09-15T15:00:24.110Z,-20611.28
2022-09-15T15:03:06.393Z,-20610.38
2022-09-15T15:05:40.479Z,-20609.91
2022-09-15T15:08:14.804Z,-20600.84
2022-09-15T15:10:42.511Z,-20599.78
2022-09-15T15:13:15.601Z,-20601.59
2022-09-15T15:15:44.457Z,-20605.53
2022-09-15T15:18:38.849Z,-20592.50
2022-09-15T15:21:07.571Z,-20590.53
2022-09-15T15:23:35.166Z,-20588.09
2022-09-15T15:26:27.250Z,-20585.22
2022-09-15T15:28:54.816Z,-20591.91
2022-09-15T15:31:24.391Z,-20589.16
2022-09-15T15:33:57.081Z,-20590.22
2022-09-15T15:36:25.698Z,-20586.13
2022-09-15T15:38:54.930Z,-20588.88
2022-09-15T15:41:25.059Z,-20585.97
2022-09-15T15:43:57.538Z,-20581.91
2022-09-15T15:46:51.506Z,-20583.09
2022-09-15T15:49:22.824Z,-20581.59
2022-09-15T15:51:50.562Z,-20586.44
2022-09-15T15:54:18.117Z,-20585.97
2022-09-15T15:56:46.901Z,-20582.19
2022-09-15T15:59:16.007Z,-20577.50
2022-09-15T16:01:44.321Z,-20577.66
2022-09-15T16:04:12.885Z,-20587.34
2022-09-15T16:06:43.106Z,-20579.16
2022-09-15T16:09:11.889Z,-20572.50
2022-09-15T16:11:39.519Z,-20581.91
2022-09-15T16:14:07.138Z,-20572.81
2022-09-15T16:16:34.877Z,-20578.72
2022-09-15T16:19:02.468Z,-20563.69
2022-09-15T16:21:36.964Z,-20572.50
2022-09-15T16:24:07.136Z,-20569.63
2022-09-15T16:26:35.804Z,-20559.00
2022-09-15T16:29:03.538Z,-20568.72
2022-09-15T16:31:32.128Z,-20573.56
2022-09-15T16:33:59.905Z,-20568.56
2022-09-15T16:36:27.941Z,-20573.41
2022-09-15T16:38:55.470Z,-20570.06
2022-09-15T16:41:25.660Z,-20565.81
2022-09-15T16:43:55.674Z,-20573.56
2022-09-15T16:46:23.519Z,-20573.25
2022-09-15T16:48:51.657Z,-20571.28
2022-09-15T16:51:27.962Z,-20560.38
2022-09-15T16:53:58.526Z,-20555.34
2022-09-15T16:56:27.897Z,-20554.59
2022-09-15T16:59:00.087Z,-20548.53
2022-09-15T17:01:28.353Z,-20543.06
2022-09-15T17:03:56.182Z,-20547.16
2022-09-15T17:06:23.772Z,-20541.25
2022-09-15T17:08:51.497Z,-20535.47
2022-09-15T17:11:22.130Z,-20533.06
2022-09-15T17:13:51.063Z,-20527.88
2022-09-15T17:16:20.190Z,-20526.97
2022-09-15T17:18:48.224Z,-20522.44
2022-09-15T17:21:17.797Z,-20516.34
2022-09-15T17:23:47.159Z,-20510.56
2022-09-15T17:26:16.362Z,-20504.03
2022-09-15T17:28:44.042Z,-20503.91
2022-09-15T17:31:16.886Z,-20499.94
2022-09-15T17:33:45.213Z,-20498.44
2022-09-15T17:36:13.440Z,-20492.34
2022-09-15T17:38:41.548Z,-20489.16
2022-09-15T17:41:14.620Z,-20481.41
2022-09-15T17:43:42.225Z,-20477.44
2022-09-15T17:46:09.964Z,-20479.88
2022-09-15T17:48:39.201Z,-20480.78
2022-09-15T17:51:07.306Z,-20478.38
2022-09-15T17:53:35.178Z,-20478.53
2022-09-15T17:56:03.118Z,-20474.09
2022-09-15T17:58:31.785Z,-20473.19
2022-09-15T18:01:00.083Z,-20468.03
2022-09-15T18:03:29.871Z,-20463.75
2022-09-15T18:06:00.862Z,-20459.19
2022-09-15T18:08:28.828Z,-20458.13
2022-09-15T18:10:56.633Z,-20455.84
2022-09-15T18:13:27.494Z,-20452.19
2022-09-15T18:15:55.773Z,-20448.56
2022-09-15T18:18:25.222Z,-20447.34
2022-09-15T18:20:54.831Z,-20443.69
2022-09-15T18:23:25.555Z,-20442.47
2022-09-15T18:25:53.417Z,-20439.28
2022-09-15T18:28:21.248Z,-20436.06
2022-09-15T18:30:50.833Z,-20429.06
2022-09-15T18:33:21.260Z,-20426.34
2022-09-15T18:35:50.595Z,-20422.69
2022-09-15T18:38:18.705Z,-20423.28
2022-09-15T18:40:49.474Z,-20420.25
2022-09-15T18:43:17.346Z,-20418.41
2022-09-15T18:45:45.422Z,-20418.09
2022-09-15T18:48:13.953Z,-20415.53
2022-09-15T18:50:42.606Z,-20415.22
2022-09-15T18:53:10.757Z,-20412.31
2022-09-15T18:55:41.805Z,-20411.09
2022-09-15T18:58:11.717Z,-20410.50
2022-09-15T19:00:39.430Z,-20409.59
2022-09-15T19:03:09.338Z,-20406.69
2022-09-15T19:05:37.407Z,-20403.03
2022-09-15T19:08:05.376Z,-20401.22
2022-09-15T19:10:33.156Z,-20398.63
2022-09-15T19:13:00.724Z,-20394.50
2022-09-15T19:15:33.674Z,-20395.56
2022-09-15T19:18:02.041Z,-20392.53
2022-09-15T19:20:30.132Z,-20392.38
2022-09-15T19:22:57.871Z,-20387.03
2022-09-15T19:25:25.666Z,-20387.34
2022-09-15T19:27:53.326Z,-20388.25
2022-09-15T19:30:21.207Z,-20388.25
2022-09-15T19:32:50.169Z,-20385.19
2022-09-15T19:35:17.838Z,-20383.81
2022-09-15T19:37:45.444Z,-20384.59
2022-09-15T19:40:14.917Z,-20381.38
2022-09-15T19:42:44.313Z,-20382.47
2022-09-15T19:45:13.147Z,-20382.47
2022-09-15T19:47:41.660Z,-20379.88
2022-09-15T19:50:12.633Z,-20379.41
2022-09-15T19:52:40.953Z,-20375.75
2022-09-15T19:55:09.976Z,-20379.56
2022-09-15T19:57:39.774Z,-20376.50
2022-09-15T20:00:09.788Z,-20378.19
2022-09-15T20:02:37.462Z,-20377.13
2022-09-15T20:05:05.730Z,-20379.09
2022-09-15T20:07:34.633Z,-20379.72
2022-09-15T20:10:02.357Z,-20380.94
2022-09-15T20:12:31.074Z,-20377.28
2022-09-15T20:14:58.577Z,-20378.50
2022-09-15T20:17:26.129Z,-20380.03
2022-09-15T20:19:53.681Z,-20376.38
2022-09-15T20:22:21.664Z,-20377.59
2022-09-15T20:24:51.440Z,-20374.53
2022-09-15T20:27:18.950Z,-20376.22
2022-09-15T20:29:46.459Z,-20377.44
2022-09-15T20:32:14.036Z,-20379.25
2022-09-15T20:34:41.692Z,-20380.03
2022-09-15T20:37:09.639Z,-20382.16
2022-09-15T20:39:37.228Z,-20382.63
2022-09-15T20:42:06.487Z,-20381.69
2022-09-15T20:44:34.091Z,-20382.63
2022-09-15T20:47:01.623Z,-20384.59
2022-09-15T20:49:29.182Z,-20383.97
2022-09-15T20:51:56.703Z,-20383.97
2022-09-15T20:54:24.266Z,-20380.94
2022-09-15T20:56:51.861Z,-20384.59
2022-09-15T20:59:20.768Z,-20387.03
2022-09-15T21:01:48.601Z,-20385.81
2022-09-15T21:04:16.165Z,-20387.34
2022-09-15T21:06:43.721Z,-20388.72
2022-09-15T21:09:11.533Z,-20388.25
2022-09-15T21:11:39.316Z,-20387.94
2022-09-15T21:14:06.850Z,-20387.94
2022-09-15T21:16:35.811Z,-20387.63
2022-09-15T21:19:03.453Z,-20389.47
2022-09-15T21:21:32.870Z,-20387.47
2022-09-15T21:24:03.718Z,-20388.25
2022-09-15T21:26:33.454Z,-20387.34
2022-09-15T21:29:01.430Z,-20387.63
2022-09-15T21:31:32.150Z,-20389.47
2022-09-15T21:34:01.505Z,-20392.06
2022-09-15T21:36:30.580Z,-20391.59
2022-09-15T21:38:59.847Z,-20394.34
2022-09-15T21:41:30.180Z,-20389.16
2022-09-15T21:43:58.967Z,-20393.13
2022-09-15T21:46:28.982Z,-20392.22
2022-09-15T21:48:57.640Z,-20391.16
2022-09-15T21:51:29.290Z,-20394.81
2022-09-15T21:53:58.091Z,-20395.56
2022-09-15T21:56:27.285Z,-20394.50
2022-09-15T21:58:55.130Z,-20390.38
2022-09-15T22:01:25.218Z,-20390.38
2022-09-15T22:03:54.800Z,-20392.22
2022-09-15T22:06:27.440Z,-20393.44
2022-09-15T22:08:56.727Z,-20394.03
2022-09-15T22:11:24.550Z,-20392.22
2022-09-15T22:13:52.269Z,-20393.44
2022-09-15T22:16:21.644Z,-20391.59
2022-09-15T22:18:50.329Z,-20391.44
2022-09-15T22:21:19.754Z,-20392.66
2022-09-15T22:23:48.654Z,-20392.22
2022-09-15T22:26:19.934Z,-20394.03
2022-09-15T22:28:48.351Z,-20394.34
2022-09-15T22:31:18.217Z,-20396.47
2022-09-15T22:33:46.257Z,-20396.94
2022-09-15T22:36:15.562Z,-20396.94
2022-09-15T22:38:43.911Z,-20398.31
2022-09-15T22:41:13.828Z,-20396.16
2022-09-15T22:43:44.732Z,-20396.47
2022-09-15T22:46:12.951Z,-20394.66
2022-09-15T22:48:43.537Z,-20395.25
2022-09-15T22:51:11.397Z,-20399.22
2022-09-15T22:53:39.125Z,-20395.88
2022-09-15T22:56:08.500Z,-20396.78
2022-09-15T22:58:36.812Z,-20395.41
2022-09-15T23:01:08.018Z,-20393.88
2022-09-15T23:03:35.748Z,-20393.88
2022-09-15T23:06:04.077Z,-20397.38
2022-09-15T23:08:32.937Z,-20396.63
2022-09-15T23:11:05.931Z,-20397.69
2022-09-15T23:13:33.840Z,-20396.47
2022-09-15T23:16:01.863Z,-20394.34
2022-09-15T23:18:30.876Z,-20392.22
2022-09-15T23:21:00.043Z,-20392.22
2022-09-15T23:23:28.072Z,-20389.63
2022-09-15T23:25:55.811Z,-20388.84
2022-09-15T23:28:24.300Z,-20388.41
2022-09-15T23:30:53.164Z,-20389.00
2022-09-15T23:33:21.196Z,-20387.47
2022-09-15T23:35:50.796Z,-20387.34
2022-09-15T23:38:19.515Z,-20389.47
2022-09-15T23:40:48.188Z,-20391.59
2022-09-15T23:43:16.348Z,-20392.22
2022-09-15T23:45:44.868Z,-20392.22
2022-09-15T23:48:13.455Z,-20394.19
2022-09-15T23:50:41.795Z,-20389.78
2022-09-15T23:53:11.010Z,-20388.25
2022-09-15T23:55:38.701Z,-20385.19
2022-09-15T23:58:06.747Z,-20386.88
